createdAt,value
2022-10-04T00:01:45.250Z,7.47
2022-10-04T00:04:17.851Z,8.00
2022-10-04T00:06:55.202Z,8.55
2022-10-04T00:09:26.340Z,9.63
2022-10-04T00:11:55.901Z,11.50
2022-10-04T00:14:32.914Z,9.85
2022-10-04T00:17:07.984Z,9.90
2022-10-04T00:19:43.299Z,9.95
2022-10-04T00:22:13.278Z,10.63
2022-10-04T00:25:13.616Z,9.60
2022-10-04T00:28:01.039Z,9.43
2022-10-04T00:30:37.282Z,8.35
2022-10-04T00:33:04.659Z,9.02
2022-10-04T00:35:31.111Z,8.65
2022-10-04T00:37:59.681Z,8.30
2022-10-04T00:40:54.214Z,8.13
2022-10-04T00:43:33.873Z,8.88
2022-10-04T00:46:29.431Z,8.23
2022-10-04T00:49:04.369Z,7.70
2022-10-04T00:51:54.641Z,8.10
2022-10-04T00:54:42.148Z,8.25
2022-10-04T00:57:15.447Z,7.95
2022-10-04T00:59:46.105Z,7.47
2022-10-04T01:02:43.277Z,7.18
2022-10-04T01:05:15.114Z,7.20
2022-10-04T01:07:45.629Z,6.95
2022-10-04T01:10:27.468Z,7.10
2022-10-04T01:12:56.718Z,7.15
2022-10-04T01:15:42.827Z,6.97
2022-10-04T01:18:16.159Z,8.00
2022-10-04T01:20:57.844Z,7.80
2022-10-04T01:23:57.790Z,9.05
2022-10-04T01:26:29.156Z,11.32
2022-10-04T01:29:24.289Z,11.70
2022-10-04T01:31:53.980Z,12.07
2022-10-04T01:34:27.997Z,13.55
2022-10-04T01:36:57.582Z,13.50
2022-10-04T01:39:25.938Z,12.98
2022-10-04T01:42:10.941Z,12.93
2022-10-04T01:45:19.135Z,11.57
2022-10-04T01:48:01.650Z,10.40
2022-10-04T01:50:32.940Z,11.13
2022-10-04T01:53:14.927Z,10.68
2022-10-04T01:55:45.401Z,10.80
2022-10-04T01:58:21.517Z,10.38
2022-10-04T02:00:57.428Z,10.35
2022-10-04T02:03:34.172Z,10.43
2022-10-04T02:06:05.076Z,10.75
2022-10-04T02:08:35.635Z,10.65
2022-10-04T02:11:04.921Z,9.90
2022-10-04T02:13:37.516Z,11.05
2022-10-04T02:16:08.828Z,9.75
2022-10-04T02:18:38.245Z,10.50
2022-10-04T02:21:06.567Z,9.88
2022-10-04T02:23:35.422Z,10.23
2022-10-04T02:26:06.931Z,10.70
2022-10-04T02:28:35.035Z,10.07
2022-10-04T02:31:22.084Z,10.55
2022-10-04T02:33:57.215Z,10.98
2022-10-04T02:36:27.721Z,11.77
2022-10-04T02:39:02.786Z,11.10
2022-10-04T02:41:35.854Z,9.63
2022-10-04T02:44:15.990Z,10.82
2022-10-04T02:46:48.340Z,9.95
2022-10-04T02:49:26.794Z,9.70
2022-10-04T02:52:02.185Z,10.23
2022-10-04T02:57:21.755Z,10.40
2022-10-04T02:59:49.032Z,10.00
2022-10-04T03:02:29.865Z,9.35
2022-10-04T03:05:11.030Z,9.75
2022-10-04T03:07:38.905Z,9.77
2022-10-04T03:10:12.003Z,10.45
2022-10-04T03:12:42.127Z,10.40
2022-10-04T03:15:15.450Z,10.00
2022-10-04T03:17:43.988Z,10.13
2022-10-04T03:20:15.847Z,9.90
2022-10-04T03:22:47.137Z,8.70
2022-10-04T03:25:21.234Z,9.73
2022-10-04T03:27:49.556Z,10.27
2022-10-04T03:30:20.143Z,9.27
2022-10-04T03:32:48.263Z,8.85
2022-10-04T03:35:37.300Z,8.93
2022-10-04T03:38:11.068Z,8.88
2022-10-04T03:40:41.813Z,8.93
2022-10-04T03:43:12.435Z,9.10
2022-10-04T03:45:40.797Z,9.40
2022-10-04T03:48:13.498Z,9.73
2022-10-04T03:50:46.981Z,8.90
2022-10-04T03:53:51.487Z,9.23
2022-10-04T03:56:31.027Z,8.98
2022-10-04T03:58:58.835Z,8.38
2022-10-04T04:01:50.738Z,8.82
2022-10-04T04:04:31.165Z,8.82
2022-10-04T04:07:12.957Z,8.98
2022-10-04T04:09:51.124Z,9.40
2022-10-04T04:12:25.782Z,10.38
2022-10-04T04:14:54.062Z,12.30
2022-10-04T04:17:27.165Z,12.30
2022-10-04T04:19:57.573Z,10.65
2022-10-04T04:22:24.874Z,11.35
2022-10-04T04:24:52.060Z,10.38
2022-10-04T04:27:19.939Z,10.82
2022-10-04T04:29:52.657Z,9.48
2022-10-04T04:32:31.672Z,9.45
2022-10-04T04:35:06.998Z,9.52
2022-10-04T04:37:35.417Z,9.50
2022-10-04T04:40:19.734Z,9.20
2022-10-04T04:42:47.654Z,8.82
2022-10-04T04:45:19.808Z,9.13
2022-10-04T04:47:50.568Z,8.50
2022-10-04T04:50:18.965Z,8.80
2022-10-04T04:52:54.929Z,8.63
2022-10-04T04:55:49.990Z,8.90
2022-10-04T04:58:26.909Z,8.40
2022-10-04T05:01:01.562Z,8.23
2022-10-04T05:03:31.126Z,9.18
2022-10-04T05:06:02.763Z,8.15
2022-10-04T05:08:31.574Z,8.90
2022-10-04T05:10:57.973Z,8.80
2022-10-04T05:16:34.706Z,8.80
2022-10-04T05:19:05.474Z,8.95
2022-10-04T05:21:34.813Z,9.48
2022-10-04T05:24:19.962Z,8.05
2022-10-04T05:26:50.169Z,7.88
2022-10-04T05:29:20.000Z,8.70
2022-10-04T05:31:58.536Z,8.25
2022-10-04T05:34:29.024Z,8.02
2022-10-04T05:37:10.260Z,8.32
2022-10-04T05:39:43.419Z,7.93
2022-10-04T05:42:28.989Z,7.53
2022-10-04T05:44:58.479Z,7.10
2022-10-04T05:47:30.476Z,7.38
2022-10-04T05:50:00.868Z,6.82
2022-10-04T05:52:36.059Z,6.85
2022-10-04T05:55:55.613Z,7.82
2022-10-04T05:59:01.314Z,7.30
2022-10-04T06:01:37.566Z,7.05
2022-10-04T06:04:36.676Z,6.85
2022-10-04T06:07:40.516Z,7.35
2022-10-04T06:10:37.119Z,8.30
2022-10-04T06:13:25.980Z,8.07
2022-10-04T06:16:20.566Z,7.28
2022-10-04T06:19:10.123Z,7.63
2022-10-04T06:22:06.510Z,7.30
2022-10-04T06:27:13.226Z,6.55
2022-10-04T06:29:46.552Z,6.55
2022-10-04T06:32:28.169Z,6.40
2022-10-04T06:35:10.636Z,6.70
2022-10-04T06:38:06.525Z,7.10
2022-10-04T06:41:14.150Z,6.82
2022-10-04T06:44:12.538Z,6.95
2022-10-04T06:46:50.099Z,6.97
2022-10-04T06:49:42.906Z,7.82
2022-10-04T06:52:37.302Z,7.07
2022-10-04T06:55:25.958Z,7.53
2022-10-04T06:58:23.770Z,8.30
2022-10-04T07:00:58.578Z,7.88
2022-10-04T07:03:43.642Z,8.10
2022-10-04T07:06:13.055Z,8.13
2022-10-04T07:08:41.396Z,7.53
2022-10-04T07:11:13.686Z,7.47
2022-10-04T07:14:13.561Z,7.72
2022-10-04T07:16:56.305Z,7.15
2022-10-04T07:19:31.151Z,7.45
2022-10-04T07:22:06.682Z,7.38
2022-10-04T07:24:51.033Z,8.32
2022-10-04T07:27:23.470Z,7.90
2022-10-04T07:29:55.398Z,6.88
2022-10-04T07:32:27.366Z,7.03
2022-10-04T07:35:09.201Z,6.65
2022-10-04T07:37:58.065Z,7.10
2022-10-04T07:40:33.489Z,6.85
2022-10-04T07:45:37.252Z,7.18
2022-10-04T07:48:13.558Z,6.97
2022-10-04T07:50:58.195Z,6.43
2022-10-04T07:53:37.521Z,6.70
2022-10-04T07:56:17.590Z,5.80
2022-10-04T07:59:15.787Z,6.75
2022-10-04T08:02:16.573Z,6.68
2022-10-04T08:05:18.295Z,6.68
2022-10-04T08:08:09.065Z,7.25
2022-10-04T08:10:57.423Z,6.90
2022-10-04T08:13:47.235Z,6.32
2022-10-04T08:16:33.145Z,5.93
2022-10-04T08:19:37.604Z,6.40
2022-10-04T08:22:16.750Z,6.00
2022-10-04T08:24:53.747Z,5.88
2022-10-04T08:27:39.526Z,6.05
2022-10-04T08:32:51.270Z,6.03
2022-10-04T08:35:20.849Z,6.55
2022-10-04T08:38:02.646Z,6.55
2022-10-04T08:40:44.759Z,6.43
2022-10-04T08:43:20.301Z,6.03
2022-10-04T08:45:56.331Z,6.78
2022-10-04T08:48:35.362Z,6.30
2022-10-04T08:51:10.829Z,7.13
2022-10-04T08:54:04.572Z,6.75
2022-10-04T08:56:33.948Z,7.30
2022-10-04T08:59:46.490Z,7.13
2022-10-04T09:02:57.188Z,6.80
2022-10-04T09:06:07.723Z,7.18
2022-10-04T09:08:52.691Z,7.22
2022-10-04T09:11:41.410Z,6.88
2022-10-04T09:14:14.346Z,6.88
2022-10-04T09:16:48.454Z,6.03
2022-10-04T09:19:39.931Z,6.10
2022-10-04T09:22:30.382Z,5.88
2022-10-04T09:25:09.115Z,5.78
2022-10-04T09:27:55.073Z,6.38
2022-10-04T09:30:25.101Z,5.85
2022-10-04T09:32:59.328Z,5.80
2022-10-04T09:35:54.844Z,5.88
2022-10-04T09:39:05.873Z,5.65
2022-10-04T09:41:45.902Z,5.53
2022-10-04T09:44:44.073Z,5.55
2022-10-04T09:47:31.902Z,6.28
2022-10-04T09:50:26.589Z,6.00
2022-10-04T09:53:31.397Z,5.78
2022-10-04T09:56:09.115Z,6.35
2022-10-04T09:58:46.326Z,4.93
2022-10-04T10:01:28.268Z,4.95
2022-10-04T10:04:32.949Z,4.95
2022-10-04T10:07:21.037Z,5.10
2022-10-04T10:10:38.094Z,4.72
2022-10-04T10:13:49.509Z,4.35
2022-10-04T10:16:42.019Z,4.72
2022-10-04T10:19:57.043Z,3.60
2022-10-04T10:23:00.489Z,4.20
2022-10-04T10:25:39.407Z,3.90
2022-10-04T10:28:17.755Z,4.60
2022-10-04T10:31:14.144Z,4.07
2022-10-04T10:34:14.461Z,4.00
2022-10-04T10:37:09.062Z,4.85
2022-10-04T10:40:03.001Z,3.88
2022-10-04T10:42:40.074Z,4.30
2022-10-04T10:45:45.767Z,4.43
2022-10-04T10:48:35.339Z,4.07
2022-10-04T10:51:10.807Z,3.70
2022-10-04T10:54:09.901Z,3.45
2022-10-04T10:57:00.731Z,3.63
2022-10-04T11:00:01.328Z,4.75
2022-10-04T11:03:23.915Z,3.88
2022-10-04T11:06:06.120Z,3.50
2022-10-04T11:09:06.576Z,3.50
2022-10-04T11:11:58.040Z,3.22
2022-10-04T11:14:47.095Z,3.10
2022-10-04T11:17:38.187Z,3.08
2022-10-04T11:20:16.621Z,3.28
2022-10-04T11:23:02.062Z,3.50
2022-10-04T11:25:48.762Z,3.95
2022-10-04T11:28:57.453Z,3.40
2022-10-04T11:31:55.897Z,3.30
2022-10-04T11:35:22.285Z,3.35
2022-10-04T11:38:15.741Z,3.33
2022-10-04T11:41:07.242Z,3.40
2022-10-04T11:43:36.701Z,3.58
2022-10-04T11:46:20.768Z,3.10
2022-10-04T11:49:24.578Z,2.88
2022-10-04T11:52:22.785Z,2.90
2022-10-04T11:55:10.669Z,2.83
2022-10-04T11:58:14.578Z,3.00
2022-10-04T12:01:08.742Z,3.20
2022-10-04T12:03:47.582Z,2.72
2022-10-04T12:06:26.125Z,2.92
2022-10-04T12:08:59.411Z,2.70
2022-10-04T12:12:13.148Z,2.70
2022-10-04T12:15:00.109Z,3.33
2022-10-04T12:17:47.874Z,2.83
2022-10-04T12:20:40.072Z,2.63
2022-10-04T12:23:29.079Z,3.00
2022-10-04T12:26:20.313Z,2.70
2022-10-04T12:28:59.017Z,2.75
2022-10-04T12:31:34.635Z,2.45
2022-10-04T12:34:32.061Z,3.10
2022-10-04T12:37:16.850Z,2.50
2022-10-04T12:39:51.403Z,2.30
2022-10-04T12:42:36.125Z,2.70
2022-10-04T12:45:53.806Z,2.50
2022-10-04T12:48:27.650Z,3.17
2022-10-04T12:51:04.606Z,2.88
2022-10-04T12:54:01.204Z,3.22
2022-10-04T12:56:58.829Z,2.90
2022-10-04T12:59:37.222Z,2.70
2022-10-04T13:02:22.255Z,2.90
2022-10-04T13:05:28.249Z,3.00
2022-10-04T13:08:01.558Z,2.70
2022-10-04T13:10:44.666Z,2.70
2022-10-04T13:13:31.531Z,2.72
2022-10-04T13:19:05.978Z,2.90
2022-10-04T13:21:41.150Z,2.63
2022-10-04T13:24:55.010Z,2.58
2022-10-04T13:27:30.900Z,2.88
2022-10-04T13:30:15.149Z,2.70
2022-10-04T13:33:18.272Z,2.85
2022-10-04T13:35:47.469Z,2.95
2022-10-04T13:38:27.742Z,2.20
2022-10-04T13:41:30.972Z,2.50
2022-10-04T13:44:24.681Z,2.58
2022-10-04T13:46:54.159Z,2.55
2022-10-04T13:49:28.130Z,2.28
2022-10-04T13:52:22.375Z,2.47
2022-10-04T13:55:24.465Z,2.17
2022-10-04T13:58:15.371Z,2.78
2022-10-04T14:01:00.821Z,1.90
2022-10-04T14:06:44.462Z,2.40
2022-10-04T14:09:45.306Z,2.30
2022-10-04T14:12:45.773Z,2.50
2022-10-04T14:15:43.297Z,2.83
2022-10-04T14:18:12.546Z,2.30
2022-10-04T14:21:00.430Z,2.50
2022-10-04T14:23:53.878Z,2.40
2022-10-04T14:26:29.970Z,2.78
2022-10-04T14:29:35.641Z,2.63
2022-10-04T14:32:32.650Z,2.65
2022-10-04T14:35:18.445Z,2.60
2022-10-04T14:38:08.249Z,2.85
2022-10-04T14:40:59.982Z,2.80
2022-10-04T14:44:16.007Z,3.20
2022-10-04T14:46:58.167Z,2.83
2022-10-04T14:49:51.623Z,2.42
2022-10-04T14:52:56.849Z,2.72
2022-10-04T14:55:55.218Z,3.08
2022-10-04T14:58:55.867Z,2.40
2022-10-04T15:01:30.099Z,2.90
2022-10-04T15:04:44.202Z,3.00
2022-10-04T15:07:21.997Z,2.53
2022-10-04T15:10:14.624Z,2.90
2022-10-04T15:13:12.256Z,3.10
2022-10-04T15:15:55.980Z,3.25
2022-10-04T15:18:56.683Z,3.20
2022-10-04T15:21:50.191Z,3.03
2022-10-04T15:24:27.666Z,4.03
2022-10-04T15:27:29.220Z,3.25
2022-10-04T15:30:17.590Z,3.67
2022-10-04T15:32:47.108Z,3.63
2022-10-04T15:35:28.857Z,3.38
2022-10-04T15:38:20.198Z,3.38
2022-10-04T15:41:13.429Z,3.22
2022-10-04T15:44:07.679Z,3.80
2022-10-04T15:47:15.278Z,3.50
2022-10-04T15:50:23.485Z,3.58
2022-10-04T15:53:19.625Z,3.17
2022-10-04T15:56:06.274Z,3.65
2022-10-04T15:58:53.038Z,3.45
2022-10-04T16:01:31.900Z,3.58
2022-10-04T16:04:18.143Z,3.20
2022-10-04T16:06:54.194Z,3.63
2022-10-04T16:09:29.514Z,4.45
2022-10-04T16:11:56.055Z,4.60
2022-10-04T16:14:31.988Z,4.20
2022-10-04T16:17:09.688Z,4.40
2022-10-04T16:19:46.109Z,4.82
2022-10-04T16:22:17.518Z,4.90
2022-10-04T16:24:53.315Z,5.07
2022-10-04T16:27:42.062Z,5.28
2022-10-04T16:30:28.212Z,5.28
2022-10-04T16:32:58.313Z,4.97
2022-10-04T16:35:39.906Z,4.65
2022-10-04T16:38:12.298Z,5.43
2022-10-04T16:40:59.045Z,5.07
2022-10-04T16:43:29.516Z,5.15
2022-10-04T16:46:23.113Z,5.22
2022-10-04T16:48:58.527Z,5.63
2022-10-04T16:51:46.720Z,4.72
2022-10-04T16:54:31.434Z,4.75
2022-10-04T16:56:57.958Z,5.33
2022-10-04T16:59:39.519Z,4.80
2022-10-04T17:02:26.195Z,5.75
2022-10-04T17:05:22.386Z,5.63
2022-10-04T17:08:16.810Z,5.53
2022-10-04T17:10:49.339Z,6.40
2022-10-04T17:13:30.566Z,5.75
2022-10-04T17:16:16.157Z,5.55
2022-10-04T17:21:48.278Z,5.55
2022-10-04T17:24:34.299Z,5.80
2022-10-04T17:27:26.024Z,5.80
2022-10-04T17:30:22.246Z,5.20
2022-10-04T17:33:22.710Z,5.82
2022-10-04T17:36:16.957Z,6.18
2022-10-04T17:39:05.294Z,6.32
2022-10-04T17:41:50.238Z,6.55
2022-10-04T17:44:34.149Z,6.07
2022-10-04T17:47:24.308Z,6.78
2022-10-04T17:50:23.626Z,6.63
2022-10-04T17:53:18.434Z,6.78
2022-10-04T17:56:00.330Z,6.63
2022-10-04T17:58:51.236Z,6.75
2022-10-04T18:01:38.037Z,5.97
2022-10-04T18:04:26.343Z,6.57
2022-10-04T18:07:04.305Z,6.53
2022-10-04T18:09:41.705Z,6.65
2022-10-04T18:12:10.860Z,6.72
2022-10-04T18:15:07.347Z,6.55
2022-10-04T18:17:38.639Z,6.53
2022-10-04T18:20:27.034Z,6.88
2022-10-04T18:23:17.732Z,6.88
2022-10-04T18:25:46.265Z,6.80
2022-10-04T18:28:21.664Z,6.22
2022-10-04T18:31:26.916Z,7.10
2022-10-04T18:34:01.524Z,5.78
2022-10-04T18:36:33.439Z,6.90
2022-10-04T18:39:12.124Z,6.00
2022-10-04T18:41:57.996Z,5.93
2022-10-04T18:44:41.762Z,6.45
2022-10-04T18:47:33.478Z,7.13
2022-10-04T18:50:06.688Z,6.72
2022-10-04T18:52:48.132Z,6.57
2022-10-04T18:55:18.504Z,6.68
2022-10-04T18:58:11.999Z,5.95
2022-10-04T19:01:02.152Z,6.55
2022-10-04T19:06:28.563Z,6.28
2022-10-04T19:08:58.630Z,6.60
2022-10-04T19:11:43.114Z,6.50
2022-10-04T19:14:24.832Z,6.32
2022-10-04T19:17:03.094Z,6.88
2022-10-04T19:20:18.521Z,6.65
2022-10-04T19:23:00.937Z,7.13
2022-10-04T19:26:17.610Z,7.18
2022-10-04T19:28:39.552Z,6.88
2022-10-04T19:31:13.657Z,6.43
2022-10-04T19:34:14.260Z,6.47
2022-10-04T19:37:09.010Z,6.55
2022-10-04T19:39:56.317Z,6.72
2022-10-04T19:42:41.470Z,6.60
2022-10-04T19:45:21.857Z,6.38
2022-10-04T19:47:58.355Z,7.70
2022-10-04T19:50:37.117Z,7.50
2022-10-04T19:53:22.223Z,7.50
2022-10-04T19:55:58.453Z,6.68
2022-10-04T19:58:41.692Z,7.10
2022-10-04T20:01:21.370Z,7.95
2022-10-04T20:04:10.671Z,7.22
2022-10-04T20:06:40.687Z,7.38
2022-10-04T20:09:26.338Z,6.95
2022-10-04T20:11:53.226Z,7.55
2022-10-04T20:14:23.424Z,6.68
2022-10-04T20:16:50.457Z,6.78
2022-10-04T20:19:29.341Z,6.88
2022-10-04T20:22:18.385Z,6.15
2022-10-04T20:24:44.868Z,5.97
2022-10-04T20:27:20.627Z,6.57
2022-10-04T20:29:53.069Z,6.43
2022-10-04T20:32:37.555Z,6.40
2022-10-04T20:35:10.276Z,6.93
2022-10-04T20:38:13.897Z,6.78
2022-10-04T20:40:45.794Z,6.63
2022-10-04T20:43:15.394Z,6.60
2022-10-04T20:45:51.317Z,6.55
2022-10-04T20:48:20.965Z,6.90
2022-10-04T20:50:49.719Z,6.28
2022-10-04T20:53:25.842Z,6.95
2022-10-04T20:56:11.858Z,6.80
2022-10-04T20:58:40.296Z,7.00
2022-10-04T21:01:46.556Z,7.05
2022-10-04T21:04:33.581Z,6.45
2022-10-04T21:07:02.239Z,6.22
2022-10-04T21:09:31.105Z,7.18
2022-10-04T21:11:58.531Z,7.18
2022-10-04T21:14:34.468Z,6.47
2022-10-04T21:17:03.344Z,6.38
2022-10-04T21:19:30.192Z,6.80
2022-10-04T21:21:58.510Z,6.85
2022-10-04T21:24:49.402Z,6.60
2022-10-04T21:27:48.406Z,6.43
2022-10-04T21:30:17.365Z,7.25
2022-10-04T21:32:44.059Z,7.07
2022-10-04T21:35:12.798Z,6.75
2022-10-04T21:37:39.279Z,7.05
2022-10-04T21:40:06.916Z,6.95
2022-10-04T21:42:33.573Z,7.40
2022-10-04T21:45:01.558Z,6.57
2022-10-04T21:47:28.021Z,6.75
2022-10-04T21:49:55.103Z,6.75
2022-10-04T21:52:21.731Z,7.05
2022-10-04T21:54:49.473Z,6.32
2022-10-04T21:57:15.965Z,6.82
2022-10-04T21:59:42.414Z,7.35
2022-10-04T22:02:08.917Z,7.13
2022-10-04T22:04:38.008Z,6.78
2022-10-04T22:07:04.717Z,6.82
2022-10-04T22:09:32.573Z,6.43
2022-10-04T22:11:59.037Z,7.40
2022-10-04T22:14:29.776Z,6.43
2022-10-04T22:16:56.294Z,6.53
2022-10-04T22:19:22.800Z,7.30
2022-10-04T22:21:49.292Z,6.93
2022-10-04T22:24:19.583Z,7.25
2022-10-04T22:26:46.918Z,6.82
2022-10-04T22:29:15.688Z,6.53
2022-10-04T22:31:46.607Z,7.43
2022-10-04T22:34:19.825Z,7.13
2022-10-04T22:36:48.789Z,7.13
2022-10-04T22:39:17.871Z,6.97
2022-10-04T22:41:47.278Z,7.15
2022-10-04T22:44:29.364Z,7.22
2022-10-04T22:46:59.172Z,7.40
2022-10-04T22:49:31.537Z,6.93
2022-10-04T22:51:59.578Z,7.20
2022-10-04T22:54:33.510Z,7.13
2022-10-04T22:57:00.105Z,7.47
2022-10-04T22:59:38.917Z,6.90
2022-10-04T23:02:29.217Z,6.68
2022-10-04T23:05:09.999Z,7.03
2022-10-04T23:07:38.569Z,6.53
2022-10-04T23:10:06.313Z,6.90
2022-10-04T23:12:32.842Z,7.50
2022-10-04T23:15:06.297Z,7.22
2022-10-04T23:17:39.800Z,7.20
2022-10-04T23:20:13.498Z,7.03
2022-10-04T23:22:42.726Z,6.70
2022-10-04T23:25:34.836Z,7.13
2022-10-04T23:28:07.952Z,7.53
2022-10-04T23:30:34.520Z,7.22
2022-10-04T23:33:01.226Z,7.63
2022-10-04T23:35:32.765Z,6.93
2022-10-04T23:38:01.627Z,7.35
2022-10-04T23:40:28.303Z,6.78
2022-10-04T23:42:56.476Z,7.85
2022-10-04T23:45:25.564Z,7.40
2022-10-04T23:47:54.723Z,8.02
2022-10-04T23:50:25.843Z,7.63
2022-10-04T23:52:57.811Z,7.45
2022-10-04T23:55:28.502Z,7.93
2022-10-04T23:57:54.984Z,7.55
